Time;durP1;ratioP1;P1;durP2;ratioP2;P2;SDS_P1;SDS_P2;PMS_P1;PMS_P2;Temp;Humidity;BMP_temperature;BMP_pressure;BME280_temperature;BME280_humidity;BME280_pressure;Samples;Min_cycle;Max_cycle;Signal;HPM_P1;HPM_P2
2024/02/02 00:00:51;;;;;;;52.33;23.80;;;4.90;99.90;;;;;;5037238;28;20127;-80
2024/02/02 00:03:18;;;;;;;52.35;21.80;;;4.90;99.90;;;;;;5032352;28;20048;-81
2024/02/02 00:05:45;;;;;;;45.55;20.48;;;4.90;99.90;;;;;;5041752;28;20051;-81
2024/02/02 00:08:13;;;;;;;59.72;22.77;;;4.90;99.90;;;;;;5043262;28;20084;-82
2024/02/02 00:10:40;;;;;;;51.00;22.25;;;4.90;99.90;;;;;;5026234;28;20049;-81
2024/02/02 00:13:06;;;;;;;65.13;23.08;;;4.90;99.90;;;;;;5042524;28;20143;-82
2024/02/02 00:15:33;;;;;;;49.75;21.95;;;4.90;99.90;;;;;;5025681;28;20106;-81
2024/02/02 00:18:02;;;;;;;58.88;26.15;;;4.80;99.90;;;;;;5041492;28;20156;-82
2024/02/02 00:20:29;;;;;;;55.60;23.80;;;4.80;99.90;;;;;;5045027;28;20052;-82
2024/02/02 00:22:56;;;;;;;66.70;25.25;;;4.80;99.90;;;;;;5044830;28;20056;-82
2024/02/02 00:25:23;;;;;;;62.50;24.90;;;4.80;99.90;;;;;;5044591;28;20137;-81
2024/02/02 00:27:50;;;;;;;65.93;27.10;;;4.80;99.90;;;;;;5041181;28;20056;-81
2024/02/02 00:30:17;;;;;;;73.57;27.67;;;4.80;99.90;;;;;;5062980;28;20044;-81
2024/02/02 00:32:44;;;;;;;57.40;28.65;;;4.80;99.90;;;;;;5031113;28;20041;-81
2024/02/02 00:35:15;;;;;;;64.65;27.73;;;4.80;99.90;;;;;;5028113;28;20060;-82
2024/02/02 00:37:44;;;;;;;71.43;29.75;;;4.80;99.90;;;;;;5022703;28;20052;-80
2024/02/02 00:40:11;;;;;;;70.82;30.00;;;4.80;99.90;;;;;;5048709;28;20068;-82
2024/02/02 00:42:37;;;;;;;84.57;31.70;;;4.80;99.90;;;;;;5043172;28;20048;-82
2024/02/02 00:45:05;;;;;;;78.20;30.50;;;4.80;99.90;;;;;;5041111;28;20139;-80
2024/02/02 00:47:32;;;;;;;77.75;33.33;;;4.80;99.90;;;;;;5038640;28;20044;-81
2024/02/02 00:49:59;;;;;;;78.57;34.42;;;4.80;99.90;;;;;;5027818;28;20052;-82
2024/02/02 00:52:27;;;;;;;82.10;35.45;;;4.80;99.90;;;;;;5024834;28;20142;-82
2024/02/02 00:54:54;;;;;;;99.88;33.40;;;4.80;99.90;;;;;;5037921;28;20068;-82
2024/02/02 00:57:20;;;;;;;80.10;31.23;;;4.80;99.90;;;;;;5032544;28;20120;-82
2024/02/02 00:59:50;;;;;;;79.88;33.30;;;4.70;99.90;;;;;;5029551;28;20052;-82
2024/02/02 01:02:17;;;;;;;78.28;30.67;;;4.80;99.90;;;;;;5029531;28;20055;-81
2024/02/02 01:04:47;;;;;;;80.25;29.65;;;4.70;99.90;;;;;;5037088;28;20052;-81
2024/02/02 01:07:18;;;;;;;70.32;26.40;;;4.70;99.90;;;;;;5040959;28;20050;-81
2024/02/02 01:09:45;;;;;;;76.45;27.35;;;4.70;99.90;;;;;;5057577;28;20048;-82
2024/02/02 01:12:13;;;;;;;88.80;28.17;;;4.60;99.90;;;;;;5043121;28;20104;-82
2024/02/02 01:14:40;;;;;;;89.63;30.77;;;4.70;99.90;;;;;;5026353;28;21647;-81
2024/02/02 01:17:07;;;;;;;75.32;28.23;;;4.70;99.90;;;;;;5028064;28;20509;-82
2024/02/02 01:19:36;;;;;;;96.88;29.30;;;4.70;99.90;;;;;;5045581;28;20040;-81
2024/02/02 01:22:04;;;;;;;72.75;26.70;;;4.70;99.90;;;;;;5029411;28;20047;-82
2024/02/02 01:24:33;;;;;;;77.15;27.05;;;4.70;99.90;;;;;;5054419;28;20071;-81
2024/02/02 01:27:01;;;;;;;69.53;24.80;;;4.70;99.90;;;;;;5027822;28;20113;-82
2024/02/02 01:29:29;;;;;;;71.10;25.20;;;4.70;99.90;;;;;;5044478;28;20045;-80
2024/02/02 01:31:56;;;;;;;78.22;25.60;;;4.60;99.90;;;;;;5060998;28;20112;-82
2024/02/02 01:34:22;;;;;;;85.75;29.33;;;4.60;99.90;;;;;;5045118;28;20036;-81
2024/02/02 01:36:51;;;;;;;75.95;24.35;;;4.70;99.90;;;;;;5025115;28;20048;-81
2024/02/02 01:39:18;;;;;;;73.00;25.88;;;4.70;99.90;;;;;;5056718;28;20048;-80
2024/02/02 01:41:45;;;;;;;69.82;25.35;;;4.70;99.90;;;;;;5058825;28;20161;-82
2024/02/02 01:44:12;;;;;;;56.63;22.30;;;4.70;99.90;;;;;;5059312;28;20048;-82
2024/02/02 01:46:39;;;;;;;60.85;23.58;;;4.70;99.90;;;;;;5032657;28;20040;-81
2024/02/02 01:49:06;;;;;;;67.68;24.23;;;4.70;99.90;;;;;;5052610;28;20048;-80
2024/02/02 01:51:33;;;;;;;61.13;22.80;;;4.70;99.90;;;;;;5040341;28;20047;-82
2024/02/02 01:54:00;;;;;;;55.35;20.05;;;4.70;99.90;;;;;;5065193;28;20196;-80
2024/02/02 01:56:28;;;;;;;59.10;24.58;;;4.70;99.90;;;;;;5053940;28;20041;-81
2024/02/02 01:58:57;;;;;;;66.75;25.45;;;4.70;99.90;;;;;;5056330;28;20056;-81
2024/02/02 02:01:24;;;;;;;59.65;22.65;;;4.70;99.90;;;;;;5066086;28;20028;-80
2024/02/02 02:03:50;;;;;;;37.83;21.00;;;4.70;99.90;;;;;;5057186;28;20033;-81
2024/02/02 02:06:17;;;;;;;63.80;24.75;;;4.70;99.90;;;;;;5063605;28;20036;-81
2024/02/02 02:08:46;;;;;;;62.28;22.80;;;4.80;99.90;;;;;;5061799;28;20044;-81
2024/02/02 02:11:13;;;;;;;57.05;23.10;;;4.80;99.90;;;;;;5062034;28;20029;-79
2024/02/02 02:13:40;;;;;;;56.42;22.08;;;4.80;99.90;;;;;;5082060;28;20088;-81
2024/02/02 02:16:08;;;;;;;60.85;23.15;;;4.80;99.90;;;;;;5054513;28;20099;-80
2024/02/02 02:18:35;;;;;;;48.40;21.58;;;4.80;99.90;;;;;;5063947;28;20047;-80
2024/02/02 02:21:26;;;;;;;39.72;20.70;;;4.70;99.90;;;;;;5084666;28;20100;-81
2024/02/02 02:23:54;;;;;;;49.08;19.42;;;4.80;99.90;;;;;;5070652;28;20050;-80
2024/02/02 02:26:21;;;;;;;42.97;17.88;;;4.70;99.90;;;;;;5050115;28;20052;-80
2024/02/02 02:28:49;;;;;;;41.78;17.20;;;4.80;99.90;;;;;;5049954;28;20056;-80
2024/02/02 02:31:17;;;;;;;46.72;17.52;;;4.70;99.90;;;;;;5033369;28;20067;-80
2024/02/02 02:33:44;;;;;;;40.97;17.25;;;4.70;99.90;;;;;;5071302;28;20044;-81
2024/02/02 02:36:15;;;;;;;32.55;16.17;;;4.70;99.90;;;;;;5048946;28;20040;-80
2024/02/02 02:38:43;;;;;;;35.35;16.40;;;4.80;99.90;;;;;;5065146;28;20044;-80
2024/02/02 02:41:11;;;;;;;32.88;16.20;;;4.80;99.90;;;;;;5047146;28;20077;-81
2024/02/02 02:43:37;;;;;;;40.20;15.98;;;4.70;99.90;;;;;;5064534;28;20048;-80
2024/02/02 02:46:05;;;;;;;42.45;16.20;;;4.80;99.90;;;;;;5061821;28;20028;-81
2024/02/02 02:48:33;;;;;;;43.15;16.63;;;4.80;99.90;;;;;;5064180;28;20044;-80
2024/02/02 02:51:01;;;;;;;28.92;15.15;;;4.70;99.90;;;;;;5065662;28;20028;-80
2024/02/02 02:53:29;;;;;;;38.47;15.68;;;4.70;99.90;;;;;;5049283;28;20032;-80
2024/02/02 02:55:56;;;;;;;34.40;15.82;;;4.80;99.90;;;;;;5064769;28;20025;-81
2024/02/02 02:58:23;;;;;;;30.15;16.65;;;4.80;99.90;;;;;;5043136;28;20044;-81
2024/02/02 03:00:53;;;;;;;36.78;15.48;;;4.70;99.90;;;;;;5025328;28;20135;-82
2024/02/02 03:03:20;;;;;;;42.15;15.68;;;4.70;99.90;;;;;;5028933;28;20037;-82
2024/02/02 03:05:47;;;;;;;42.65;16.75;;;4.70;99.90;;;;;;5035496;28;20067;-81
2024/02/02 03:08:14;;;;;;;42.80;16.13;;;4.70;99.90;;;;;;5023055;28;20059;-82
2024/02/02 03:10:41;;;;;;;40.70;15.38;;;4.70;99.90;;;;;;5021099;28;20040;-81
2024/02/02 03:13:09;;;;;;;38.65;16.60;;;4.70;99.90;;;;;;5030741;28;20041;-81
2024/02/02 03:15:38;;;;;;;34.08;15.70;;;4.70;99.90;;;;;;5033235;28;20044;-81
2024/02/02 03:18:05;;;;;;;28.35;14.93;;;4.70;99.90;;;;;;5045869;28;20045;-80
2024/02/02 03:20:32;;;;;;;38.58;16.27;;;4.70;99.90;;;;;;5017362;28;20068;-81
2024/02/02 03:22:59;;;;;;;33.53;16.38;;;4.70;99.90;;;;;;5026480;28;20058;-81
2024/02/02 03:25:26;;;;;;;35.83;15.80;;;4.70;99.90;;;;;;5044566;28;20044;-81
2024/02/02 03:27:53;;;;;;;33.67;15.02;;;4.70;99.90;;;;;;5027550;28;20055;-81
2024/02/02 03:30:20;;;;;;;33.05;14.38;;;4.60;99.90;;;;;;5043042;28;20053;-81
2024/02/02 03:32:48;;;;;;;42.22;15.85;;;4.60;99.90;;;;;;5021799;28;21228;-82
2024/02/02 03:35:15;;;;;;;35.47;14.75;;;4.70;99.90;;;;;;5040709;28;20123;-82
2024/02/02 03:37:42;;;;;;;39.60;15.48;;;4.60;99.90;;;;;;5027383;28;20037;-82
2024/02/02 03:40:09;;;;;;;32.65;15.30;;;4.60;99.90;;;;;;5044392;28;20048;-81
2024/02/02 03:42:37;;;;;;;36.05;14.82;;;4.70;99.90;;;;;;5036256;28;20103;-80
2024/02/02 03:45:05;;;;;;;27.05;16.40;;;4.60;99.90;;;;;;5023796;28;20052;-82
2024/02/02 03:47:32;;;;;;;32.58;14.02;;;4.60;99.90;;;;;;5041969;28;20052;-80
2024/02/02 03:49:59;;;;;;;31.63;14.60;;;4.60;99.90;;;;;;5037774;28;20495;-81
2024/02/02 03:52:27;;;;;;;27.27;15.35;;;4.70;99.90;;;;;;5046599;28;20107;-80
2024/02/02 03:54:54;;;;;;;31.33;15.55;;;4.70;99.90;;;;;;5024672;28;20037;-81
2024/02/02 03:57:21;;;;;;;26.38;16.27;;;4.60;99.90;;;;;;5044513;28;20036;-81
2024/02/02 03:59:48;;;;;;;29.10;16.23;;;4.70;99.90;;;;;;5046118;28;22441;-82
2024/02/02 04:02:16;;;;;;;32.25;15.55;;;4.70;99.90;;;;;;5042643;28;20060;-81
2024/02/02 04:04:44;;;;;;;26.27;15.98;;;4.70;99.90;;;;;;5046649;28;20297;-80
2024/02/02 04:07:11;;;;;;;31.70;16.67;;;4.70;99.90;;;;;;5046166;28;20040;-81
2024/02/02 04:09:38;;;;;;;39.33;19.45;;;4.70;99.90;;;;;;5025462;28;20047;-81
2024/02/02 04:12:05;;;;;;;30.35;17.92;;;4.70;99.90;;;;;;5027141;28;20044;-81
2024/02/02 04:14:32;;;;;;;35.63;16.95;;;4.80;99.90;;;;;;5019921;28;20148;-80
2024/02/02 04:16:59;;;;;;;34.45;17.58;;;4.80;99.90;;;;;;5046524;28;20060;-81
2024/02/02 04:19:29;;;;;;;31.65;17.65;;;4.80;99.90;;;;;;5044767;28;20051;-81
2024/02/02 04:21:57;;;;;;;32.92;17.95;;;4.80;99.90;;;;;;5041837;28;20044;-82
2024/02/02 04:24:24;;;;;;;26.65;17.27;;;4.80;99.90;;;;;;5046508;28;20495;-82
2024/02/02 04:26:51;;;;;;;31.38;17.25;;;4.80;99.90;;;;;;5027729;28;20704;-81
2024/02/02 04:29:18;;;;;;;25.15;17.23;;;4.80;99.90;;;;;;5038328;28;20743;-80
2024/02/02 04:31:45;;;;;;;34.42;16.92;;;4.80;99.90;;;;;;5040815;28;20036;-82
2024/02/02 04:34:12;;;;;;;30.65;18.23;;;4.90;99.90;;;;;;5044193;28;20191;-80
2024/02/02 04:36:40;;;;;;;27.00;17.50;;;4.80;99.90;;;;;;5022890;28;20064;-81
2024/02/02 04:39:08;;;;;;;32.38;18.08;;;4.80;99.90;;;;;;5043801;28;20051;-80
2024/02/02 04:41:35;;;;;;;33.63;18.25;;;4.80;99.90;;;;;;5042675;28;20079;-81
2024/02/02 04:44:02;;;;;;;29.85;18.55;;;4.80;99.90;;;;;;5046901;28;20158;-80
2024/02/02 04:46:29;;;;;;;29.33;18.50;;;4.80;99.90;;;;;;5058154;28;20045;-80
2024/02/02 04:48:56;;;;;;;33.83;19.58;;;4.80;99.90;;;;;;5043531;28;20045;-79
2024/02/02 04:51:23;;;;;;;27.63;18.83;;;4.80;99.90;;;;;;5032951;28;20045;-81
2024/02/02 04:53:50;;;;;;;25.20;18.63;;;4.90;99.90;;;;;;5046029;28;20492;-80
2024/02/02 04:56:17;;;;;;;25.25;17.70;;;4.80;99.90;;;;;;5054721;28;20070;-80
2024/02/02 04:58:43;;;;;;;28.05;18.45;;;4.80;99.90;;;;;;5030261;28;20400;-80
2024/02/02 05:01:10;;;;;;;38.22;18.75;;;4.80;99.90;;;;;;5064165;28;20044;-81
2024/02/02 05:03:37;;;;;;;28.88;20.63;;;4.80;99.90;;;;;;5042334;28;20430;-81
2024/02/02 05:06:04;;;;;;;29.45;18.90;;;4.80;99.90;;;;;;5028597;28;20048;-80
2024/02/02 05:08:31;;;;;;;27.75;17.70;;;4.80;99.90;;;;;;5049093;28;20071;-81
2024/02/02 05:10:58;;;;;;;32.10;18.60;;;4.80;99.90;;;;;;5028714;28;20845;-80
2024/02/02 05:13:24;;;;;;;28.85;17.23;;;4.80;99.90;;;;;;5030463;28;20037;-80
2024/02/02 05:15:52;;;;;;;28.98;18.20;;;4.80;99.90;;;;;;5035310;28;20152;-81
2024/02/02 05:18:18;;;;;;;26.35;17.83;;;4.80;99.90;;;;;;5058560;28;20040;-79
2024/02/02 05:20:48;;;;;;;31.10;19.00;;;4.80;99.90;;;;;;5061289;28;20056;-79
2024/02/02 05:23:15;;;;;;;25.85;18.58;;;4.80;99.90;;;;;;5050892;28;20068;-81
2024/02/02 05:25:42;;;;;;;26.92;19.80;;;4.80;99.90;;;;;;5021653;28;20052;-80
2024/02/02 05:28:09;;;;;;;31.20;19.55;;;4.90;99.90;;;;;;5044853;28;20052;-81
2024/02/02 05:30:37;;;;;;;30.83;18.98;;;4.90;99.90;;;;;;5028432;28;20056;-81
2024/02/02 05:33:04;;;;;;;25.17;17.17;;;4.90;99.90;;;;;;5044342;28;20074;-82
2024/02/02 05:35:32;;;;;;;28.50;18.25;;;4.90;99.90;;;;;;5046969;28;20064;-80
2024/02/02 05:37:59;;;;;;;38.58;17.90;;;4.80;99.90;;;;;;5042168;28;20252;-81
2024/02/02 05:40:26;;;;;;;23.95;17.08;;;4.80;99.90;;;;;;5048628;28;20032;-81
2024/02/02 05:42:59;;;;;;;25.42;16.00;;;4.70;99.90;;;;;;5045378;28;20101;-81
2024/02/02 05:45:26;;;;;;;33.17;15.63;;;4.70;99.90;;;;;;5041808;28;20609;-79
2024/02/02 05:47:53;;;;;;;21.58;14.18;;;4.60;99.90;;;;;;5036718;28;20079;-80
2024/02/02 05:50:20;;;;;;;30.52;14.35;;;4.60;99.90;;;;;;5050951;28;20048;-81
2024/02/02 05:52:47;;;;;;;20.55;13.48;;;4.50;99.90;;;;;;5046138;28;20495;-80
2024/02/02 05:55:13;;;;;;;18.85;14.02;;;4.50;99.90;;;;;;5046305;28;20044;-80
2024/02/02 05:57:42;;;;;;;24.27;13.95;;;4.50;99.90;;;;;;5044264;28;20104;-77
2024/02/02 06:00:10;;;;;;;22.20;14.30;;;4.50;99.90;;;;;;5061227;28;20039;-78
2024/02/02 06:02:37;;;;;;;30.58;15.20;;;4.50;99.90;;;;;;5044867;28;20087;-79
2024/02/02 06:05:05;;;;;;;25.15;14.80;;;4.50;99.90;;;;;;5055238;28;20052;-80
2024/02/02 06:07:32;;;;;;;30.35;15.20;;;4.50;99.90;;;;;;5022669;28;20044;-79
2024/02/02 06:09:58;;;;;;;35.80;15.75;;;4.50;99.90;;;;;;5029664;28;20063;-82
2024/02/02 06:12:25;;;;;;;25.55;14.70;;;4.60;99.90;;;;;;5030987;28;20058;-80
2024/02/02 06:14:52;;;;;;;32.00;14.95;;;4.60;99.90;;;;;;5037185;28;20091;-80
2024/02/02 06:17:19;;;;;;;23.65;15.13;;;4.60;99.90;;;;;;5042828;28;20040;-81
2024/02/02 06:19:46;;;;;;;32.47;16.40;;;4.70;99.90;;;;;;5057673;28;20112;-81
2024/02/02 06:22:13;;;;;;;25.63;15.45;;;4.70;99.90;;;;;;5040742;28;20443;-81
2024/02/02 06:24:40;;;;;;;29.52;16.70;;;4.80;99.90;;;;;;5064591;28;20054;-79
2024/02/02 06:27:06;;;;;;;25.60;16.23;;;4.80;99.90;;;;;;5042687;28;20068;-79
2024/02/02 06:29:34;;;;;;;33.17;16.30;;;4.80;99.90;;;;;;5033434;28;20052;-81
2024/02/02 06:32:01;;;;;;;25.05;18.23;;;4.80;99.90;;;;;;5047487;28;20055;-80
2024/02/02 06:34:28;;;;;;;26.08;16.80;;;4.90;99.90;;;;;;5055995;28;20426;-78
2024/02/02 06:36:55;;;;;;;31.17;16.17;;;4.90;99.90;;;;;;5024172;28;20086;-82
2024/02/02 06:39:23;;;;;;;22.92;18.63;;;4.90;99.90;;;;;;5046394;28;20048;-81
2024/02/02 06:41:50;;;;;;;24.67;16.75;;;4.90;99.90;;;;;;5036319;28;20134;-81
2024/02/02 06:44:17;;;;;;;35.42;16.15;;;4.90;99.90;;;;;;5022616;28;20747;-80
2024/02/02 06:46:44;;;;;;;22.80;17.25;;;4.90;99.90;;;;;;5037350;28;20116;-80
2024/02/02 06:49:11;;;;;;;29.63;15.55;;;5.00;99.90;;;;;;5060066;28;20044;-81
2024/02/02 06:51:38;;;;;;;21.77;14.27;;;4.90;99.90;;;;;;5025484;28;20044;-79
2024/02/02 06:54:05;;;;;;;28.92;16.65;;;4.90;99.90;;;;;;5035964;28;20064;-80
2024/02/02 06:56:37;;;;;;;31.05;16.55;;;4.80;99.90;;;;;;5039652;28;20081;-81
2024/02/02 06:59:06;;;;;;;32.28;16.35;;;4.80;99.90;;;;;;5057879;28;20052;-80
2024/02/02 07:01:35;;;;;;;35.42;15.65;;;4.80;99.90;;;;;;5038350;28;20039;-79
2024/02/02 07:04:06;;;;;;;29.92;15.35;;;4.80;99.90;;;;;;5017694;28;20048;-81
2024/02/02 07:06:34;;;;;;;35.38;16.30;;;4.90;99.90;;;;;;5036988;28;20044;-79
2024/02/02 07:09:18;;;;;;;33.47;15.80;;;4.90;99.90;;;;;;5031842;28;20055;-82
2024/02/02 07:12:00;;;;;;;20.92;15.75;;;4.90;99.90;;;;;;5030438;28;20072;-79
2024/02/02 07:14:48;;;;;;;26.52;16.15;;;5.00;99.90;;;;;;5039163;28;20040;-80
2024/02/02 07:17:32;;;;;;;37.90;18.40;;;5.00;99.90;;;;;;5036998;28;20047;-79
2024/02/02 07:20:00;;;;;;;21.17;16.85;;;5.00;99.90;;;;;;5022881;28;21431;-79
2024/02/02 07:22:49;;;;;;;37.00;19.08;;;5.10;99.90;;;;;;5038932;28;20048;-83
2024/02/02 07:25:21;;;;;;;27.63;18.20;;;5.20;99.90;;;;;;5040008;28;20250;-78
2024/02/02 07:28:24;;;;;;;26.08;17.75;;;5.20;99.90;;;;;;5038237;28;21115;-80
2024/02/02 07:30:55;;;;;;;26.08;19.50;;;5.20;99.90;;;;;;5014983;28;20104;-81
2024/02/02 07:33:25;;;;;;;28.48;18.38;;;5.30;99.90;;;;;;5042011;28;20044;-83
2024/02/02 07:35:55;;;;;;;29.40;19.65;;;5.40;99.90;;;;;;5045627;28;20040;-80
2024/02/02 07:38:46;;;;;;;27.60;18.92;;;5.50;99.90;;;;;;5045899;28;20094;-80
2024/02/02 07:41:18;;;;;;;28.73;18.90;;;5.50;99.90;;;;;;5064134;28;20032;-79
2024/02/02 07:43:47;;;;;;;25.85;19.67;;;5.60;99.90;;;;;;5045880;28;20058;-80
2024/02/02 07:46:14;;;;;;;34.55;20.77;;;5.60;99.90;;;;;;5036556;28;20819;-81
2024/02/02 07:48:43;;;;;;;27.98;20.58;;;5.60;99.90;;;;;;5040998;28;20535;-78
2024/02/02 07:51:11;;;;;;;26.98;23.73;;;5.60;99.90;;;;;;5039649;28;20052;-79
2024/02/02 07:53:38;;;;;;;32.25;25.38;;;5.60;99.90;;;;;;5059753;28;20178;-78
2024/02/02 07:56:05;;;;;;;29.80;24.25;;;5.60;99.90;;;;;;5041150;28;20045;-78
2024/02/02 07:58:32;;;;;;;26.30;23.52;;;5.70;99.90;;;;;;5035503;28;20511;-79
2024/02/02 08:00:59;;;;;;;27.27;24.77;;;5.70;99.90;;;;;;5024334;28;20137;-79
2024/02/02 08:03:27;;;;;;;26.48;23.90;;;5.70;99.90;;;;;;5051223;28;20052;-78
2024/02/02 08:05:54;;;;;;;28.85;25.55;;;5.70;99.90;;;;;;5032462;28;20048;-78
2024/02/02 08:08:21;;;;;;;28.00;25.23;;;5.80;99.90;;;;;;5040754;28;20144;-78
2024/02/02 08:10:47;;;;;;;28.30;25.50;;;5.70;99.90;;;;;;5056172;28;20050;-77
2024/02/02 08:13:16;;;;;;;27.25;24.75;;;5.80;99.90;;;;;;5063440;28;20043;-79
2024/02/02 08:15:43;;;;;;;26.83;24.45;;;5.80;99.90;;;;;;5036086;28;20036;-78
2024/02/02 08:18:10;;;;;;;28.65;25.55;;;5.80;99.90;;;;;;5040832;28;20060;-78
2024/02/02 08:20:37;;;;;;;31.92;24.48;;;5.80;99.90;;;;;;5045175;28;20123;-78
2024/02/02 08:23:05;;;;;;;27.20;23.50;;;5.80;99.90;;;;;;5032927;28;20132;-79
2024/02/02 08:25:33;;;;;;;27.63;24.13;;;5.80;99.90;;;;;;5045430;28;20063;-79
2024/02/02 08:28:01;;;;;;;34.15;24.67;;;5.80;99.90;;;;;;5023502;28;20060;-78
2024/02/02 08:30:28;;;;;;;30.42;24.60;;;5.80;99.90;;;;;;5042736;28;20053;-78
2024/02/02 08:32:55;;;;;;;25.88;23.20;;;5.80;99.90;;;;;;5046708;28;20048;-79
2024/02/02 08:35:24;;;;;;;28.55;24.60;;;5.90;99.90;;;;;;5049382;28;20036;-78
2024/02/02 08:38:02;;;;;;;25.50;22.65;;;5.80;99.90;;;;;;5028516;28;20044;-78
2024/02/02 08:40:32;;;;;;;29.80;23.63;;;5.90;99.90;;;;;;5041645;28;20052;-79
2024/02/02 08:42:59;;;;;;;25.40;23.08;;;5.90;99.90;;;;;;5056793;28;20045;-78
2024/02/02 08:45:41;;;;;;;32.60;24.25;;;5.90;99.90;;;;;;5039979;28;20051;-77
2024/02/02 08:48:55;;;;;;;29.77;25.08;;;5.90;99.90;;;;;;5043669;28;20477;-78
2024/02/02 08:51:27;;;;;;;26.45;24.08;;;5.90;99.90;;;;;;5043849;28;20041;-79
2024/02/02 08:54:14;;;;;;;32.38;25.65;;;5.90;99.90;;;;;;5039709;28;20028;-78
2024/02/02 08:57:15;;;;;;;35.22;26.52;;;6.00;99.90;;;;;;5047455;28;20040;-78
2024/02/02 08:59:52;;;;;;;33.72;25.95;;;6.00;99.90;;;;;;5041386;28;20074;-78
2024/02/02 09:02:51;;;;;;;30.98;26.48;;;6.00;99.90;;;;;;5032095;28;20094;-78
2024/02/02 09:05:23;;;;;;;41.55;25.63;;;6.10;99.90;;;;;;5056780;28;20090;-77
2024/02/02 09:08:15;;;;;;;32.25;26.08;;;6.20;99.90;;;;;;5089116;28;20216;-77
2024/02/02 09:10:43;;;;;;;31.95;25.05;;;6.10;99.90;;;;;;5069308;28;20052;-78
2024/02/02 09:13:20;;;;;;;27.88;24.98;;;6.10;99.90;;;;;;5028783;28;20051;-78
2024/02/02 09:15:47;;;;;;;33.22;26.02;;;6.10;99.90;;;;;;5036170;28;20049;-78
2024/02/02 09:18:40;;;;;;;27.58;24.60;;;6.10;99.90;;;;;;5047897;28;20072;-78
2024/02/02 09:21:08;;;;;;;29.10;24.92;;;6.10;99.90;;;;;;5055471;28;20354;-77
2024/02/02 09:23:36;;;;;;;28.33;25.30;;;6.20;99.90;;;;;;5065089;28;20056;-78
2024/02/02 09:26:11;;;;;;;32.67;25.77;;;6.30;99.90;;;;;;5025781;28;20043;-78
2024/02/02 09:28:42;;;;;;;27.73;24.75;;;6.30;99.90;;;;;;5060458;28;20098;-78
2024/02/02 09:31:34;;;;;;;36.08;27.17;;;6.40;99.90;;;;;;5032680;28;20705;-78
2024/02/02 09:34:07;;;;;;;27.38;24.60;;;6.50;99.90;;;;;;5044076;28;20058;-79
2024/02/02 09:36:35;;;;;;;28.35;25.52;;;6.50;99.90;;;;;;5044601;28;20136;-78
2024/02/02 09:39:09;;;;;;;34.85;24.67;;;6.60;99.90;;;;;;5036741;28;20506;-78
2024/02/02 09:42:14;;;;;;;28.48;25.50;;;6.70;99.90;;;;;;5058824;28;20114;-78
2024/02/02 09:44:46;;;;;;;29.40;24.17;;;6.70;99.90;;;;;;5056274;28;20254;-76
2024/02/02 09:47:30;;;;;;;32.60;25.95;;;6.70;99.90;;;;;;5024506;28;20048;-78
2024/02/02 09:50:28;;;;;;;30.52;25.88;;;6.60;99.90;;;;;;5032291;28;20056;-78
2024/02/02 09:53:34;;;;;;;29.80;25.83;;;6.60;99.90;;;;;;5041468;28;20230;-77
2024/02/02 09:56:24;;;;;;;;;;;6.60;99.90;;;;;;5026903;28;20048;-77
2024/02/02 09:59:11;;;;;;;29.02;25.30;;;6.50;99.90;;;;;;5037664;28;19928;-77
2024/02/02 10:02:05;;;;;;;34.25;24.75;;;6.50;99.90;;;;;;5043290;28;20040;-77
2024/02/02 10:04:45;;;;;;;27.00;24.55;;;6.60;99.90;;;;;;5039975;28;20060;-77
2024/02/02 10:07:41;;;;;;;27.40;24.15;;;6.70;99.90;;;;;;5039587;28;20055;-78
2024/02/02 10:10:10;;;;;;;35.13;26.90;;;6.50;99.90;;;;;;5051668;28;20048;-76
2024/02/02 10:12:44;;;;;;;29.77;25.30;;;6.60;99.90;;;;;;5021358;28;20052;-77
2024/02/02 10:15:48;;;;;;;28.48;25.67;;;6.60;99.90;;;;;;5035340;28;20045;-76
2024/02/02 10:18:32;;;;;;;27.00;24.48;;;6.70;99.90;;;;;;5041101;28;20134;-77
2024/02/02 10:21:25;;;;;;;28.13;25.17;;;6.50;99.90;;;;;;5057694;28;20040;-78
2024/02/02 10:24:24;;;;;;;33.05;26.55;;;6.60;99.90;;;;;;5039109;28;20053;-77
2024/02/02 10:27:20;;;;;;;28.38;25.63;;;6.60;99.90;;;;;;5022132;28;20047;-77
2024/02/02 10:30:09;;;;;;;31.60;23.98;;;6.70;99.90;;;;;;5056335;28;20066;-76
2024/02/02 10:32:48;;;;;;;32.67;25.85;;;6.80;99.90;;;;;;5019943;28;20134;-76
2024/02/02 10:35:27;;;;;;;27.90;24.83;;;6.90;99.90;;;;;;5050382;28;21809;-77
2024/02/02 10:38:01;;;;;;;28.80;25.75;;;6.90;99.90;;;;;;5027571;28;20527;-77
2024/02/02 10:40:52;;;;;;;29.20;24.77;;;6.90;99.90;;;;;;5020871;28;20074;-78
2024/02/02 10:43:31;;;;;;;28.63;25.25;;;6.90;99.90;;;;;;5034606;28;20048;-77
2024/02/02 10:46:15;;;;;;;27.73;24.48;;;6.90;99.90;;;;;;5029883;28;20041;-78
2024/02/02 10:48:54;;;;;;;32.63;25.63;;;6.90;99.90;;;;;;5038526;28;20108;-78
2024/02/02 10:51:40;;;;;;;27.92;25.35;;;7.00;99.90;;;;;;5026195;28;20500;-78
2024/02/02 10:54:33;;;;;;;31.48;28.52;;;7.10;99.90;;;;;;5028904;28;20044;-77
2024/02/02 10:57:31;;;;;;;30.25;27.02;;;7.10;99.90;;;;;;5037819;28;20109;-77
2024/02/02 11:00:08;;;;;;;34.25;28.67;;;7.00;99.90;;;;;;5059014;28;20118;-78
2024/02/02 11:03:05;;;;;;;31.05;27.65;;;7.00;99.90;;;;;;5042075;28;20044;-78
2024/02/02 11:05:46;;;;;;;30.40;27.52;;;7.00;99.90;;;;;;5038321;28;20639;-78
2024/02/02 11:08:21;;;;;;;29.10;26.13;;;7.10;99.90;;;;;;5030656;28;20076;-78
2024/02/02 11:10:58;;;;;;;31.08;26.73;;;7.10;99.90;;;;;;5039779;28;20052;-78
2024/02/02 11:13:49;;;;;;;31.08;27.35;;;7.00;99.90;;;;;;5038917;28;20102;-78
2024/02/02 11:16:22;;;;;;;28.88;25.98;;;7.00;99.90;;;;;;5044469;28;20048;-77
2024/02/02 11:18:54;;;;;;;29.60;26.60;;;7.10;99.90;;;;;;5055166;28;20776;-78
2024/02/02 11:21:41;;;;;;;33.72;29.55;;;7.10;99.90;;;;;;5040590;28;20103;-78
2024/02/02 11:24:33;;;;;;;33.95;27.98;;;7.10;99.90;;;;;;5019493;28;20136;-80
2024/02/02 11:27:19;;;;;;;28.63;26.05;;;7.10;99.90;;;;;;5031524;28;20044;-79
2024/02/02 11:30:06;;;;;;;36.90;29.75;;;7.10;99.90;;;;;;5037926;28;20704;-77
2024/02/02 11:32:54;;;;;;;39.03;26.40;;;7.10;99.90;;;;;;5010325;28;20119;-76
2024/02/02 11:35:27;;;;;;;32.63;26.77;;;7.10;99.90;;;;;;5026554;28;20036;-77
2024/02/02 11:38:14;;;;;;;28.70;25.65;;;7.10;99.90;;;;;;5034400;28;20056;-76
2024/02/02 11:40:42;;;;;;;32.75;24.60;;;7.20;99.90;;;;;;5049390;28;20045;-77
2024/02/02 11:43:11;;;;;;;34.50;26.23;;;7.30;99.90;;;;;;5018059;28;20179;-77
2024/02/02 11:45:42;;;;;;;30.35;27.15;;;7.30;99.90;;;;;;5012459;28;20127;-77
2024/02/02 11:48:21;;;;;;;29.30;25.67;;;7.30;99.90;;;;;;5046883;28;20045;-77
2024/02/02 11:50:49;;;;;;;33.97;26.35;;;7.40;99.90;;;;;;5044920;28;20747;-78
2024/02/02 11:53:35;;;;;;;28.35;25.80;;;7.50;99.90;;;;;;5056875;28;20052;-77
2024/02/02 11:56:28;;;;;;;29.10;25.48;;;7.50;99.90;;;;;;5036276;28;20118;-77
2024/02/02 11:59:29;;;;;;;30.60;25.40;;;7.50;99.90;;;;;;5040738;28;20098;-77
2024/02/02 12:02:15;;;;;;;28.58;25.67;;;7.60;99.90;;;;;;5033490;28;20040;-78
2024/02/02 12:04:49;;;;;;;32.63;26.02;;;7.70;99.90;;;;;;5018910;28;20060;-77
2024/02/02 12:07:52;;;;;;;32.43;27.30;;;7.70;99.90;;;;;;5027247;28;21009;-77
2024/02/02 12:10:24;;;;;;;37.35;27.05;;;7.80;99.90;;;;;;5049030;28;20330;-77
2024/02/02 12:13:06;;;;;;;29.40;26.30;;;7.70;99.90;;;;;;5041335;28;20131;-76
2024/02/02 12:15:33;;;;;;;30.17;26.45;;;7.80;99.90;;;;;;5033355;28;20040;-76
2024/02/02 12:18:01;;;;;;;27.17;25.00;;;7.80;99.90;;;;;;5037837;28;20068;-77
2024/02/02 12:20:30;;;;;;;30.70;27.05;;;7.70;99.90;;;;;;5051779;28;20516;-76
2024/02/02 12:22:57;;;;;;;30.02;25.85;;;7.80;99.90;;;;;;5037004;28;20131;-76
2024/02/02 12:25:25;;;;;;;27.63;24.95;;;7.80;99.90;;;;;;5054032;28;20048;-76
2024/02/02 12:27:52;;;;;;;31.55;26.15;;;7.70;99.90;;;;;;5035251;28;20055;-76
2024/02/02 12:30:19;;;;;;;29.55;25.27;;;7.70;99.90;;;;;;5035166;28;20036;-76
2024/02/02 12:32:56;;;;;;;28.65;25.55;;;7.70;99.90;;;;;;5024566;28;20458;-75
2024/02/02 12:35:24;;;;;;;27.98;25.08;;;7.70;99.90;;;;;;5052392;28;20123;-75
2024/02/02 12:37:52;;;;;;;30.23;24.35;;;7.70;99.90;;;;;;5044422;28;20052;-76
2024/02/02 12:40:19;;;;;;;29.98;25.83;;;7.70;99.90;;;;;;5056675;28;20037;-74
2024/02/02 12:42:50;;;;;;;31.83;26.65;;;7.70;99.90;;;;;;5068567;28;20112;-74
2024/02/02 12:45:17;;;;;;;29.17;26.15;;;7.80;99.90;;;;;;5058731;28;20048;-75
2024/02/02 12:47:46;;;;;;;32.88;27.58;;;7.90;99.90;;;;;;5023771;28;20113;-76
2024/02/02 12:50:18;;;;;;;30.85;27.88;;;8.00;99.90;;;;;;5053812;28;20051;-76
2024/02/02 12:52:46;;;;;;;32.58;29.10;;;8.20;99.90;;;;;;5042638;28;20493;-76
2024/02/02 12:55:14;;;;;;;33.08;30.08;;;8.30;99.90;;;;;;5048964;28;20501;-76
2024/02/02 12:57:41;;;;;;;33.03;29.85;;;8.40;99.90;;;;;;5053685;28;20060;-75
2024/02/02 13:00:14;;;;;;;34.08;29.08;;;8.50;99.90;;;;;;5032791;28;20049;-76
2024/02/02 13:02:45;;;;;;;31.80;28.95;;;8.50;99.90;;;;;;5034779;28;20054;-76